sensor_id;sensor_type;location;lat;lon;timestamp;P1;durP1;ratioP1;P2;durP2;ratioP2
28068;SDS011;15382;47.578;8.086;2022-07-09T00:00:25;3.43;;;1.60;;
28068;SDS011;15382;47.578;8.086;2022-07-09T00:10:26;3.77;;;1.57;;
28068;SDS011;15382;47.578;8.086;2022-07-09T00:20:27;8.53;;;1.70;;
28068;SDS011;15382;47.578;8.086;2022-07-09T00:30:28;3.37;;;1.70;;
28068;SDS011;15382;47.578;8.086;2022-07-09T00:40:28;6.47;;;1.50;;
28068;SDS011;15382;47.578;8.086;2022-07-09T00:50:29;5.03;;;1.70;;
28068;SDS011;15382;47.578;8.086;2022-07-09T01:00:30;4.28;;;1.50;;
28068;SDS011;15382;47.578;8.086;2022-07-09T01:10:34;2.50;;;1.40;;
28068;SDS011;15382;47.578;8.086;2022-07-09T01:30:36;4.10;;;1.77;;
28068;SDS011;15382;47.578;8.086;2022-07-09T01:40:39;3.95;;;1.25;;
28068;SDS011;15382;47.578;8.086;2022-07-09T01:50:40;6.47;;;1.50;;
28068;SDS011;15382;47.578;8.086;2022-07-09T02:00:41;3.03;;;1.93;;
28068;SDS011;15382;47.578;8.086;2022-07-09T02:10:43;7.95;;;1.55;;
28068;SDS011;15382;47.578;8.086;2022-07-09T02:20:46;10.02;;;1.90;;
28068;SDS011;15382;47.578;8.086;2022-07-09T02:30:46;3.40;;;1.67;;
28068;SDS011;15382;47.578;8.086;2022-07-09T02:40:47;3.10;;;1.57;;
28068;SDS011;15382;47.578;8.086;2022-07-09T02:50:49;8.40;;;1.87;;
28068;SDS011;15382;47.578;8.086;2022-07-09T03:00:50;5.38;;;1.48;;
28068;SDS011;15382;47.578;8.086;2022-07-09T03:10:50;4.50;;;1.40;;
28068;SDS011;15382;47.578;8.086;2022-07-09T03:20:51;4.10;;;1.27;;
28068;SDS011;15382;47.578;8.086;2022-07-09T03:30:52;3.80;;;1.70;;
28068;SDS011;15382;47.578;8.086;2022-07-09T03:40:53;3.47;;;1.33;;
28068;SDS011;15382;47.578;8.086;2022-07-09T03:50:53;5.10;;;1.40;;
28068;SDS011;15382;47.578;8.086;2022-07-09T04:00:54;5.67;;;1.63;;
28068;SDS011;15382;47.578;8.086;2022-07-09T04:10:55;4.37;;;1.70;;
28068;SDS011;15382;47.578;8.086;2022-07-09T04:20:56;4.17;;;1.43;;
28068;SDS011;15382;47.578;8.086;2022-07-09T04:30:57;6.40;;;1.60;;
28068;SDS011;15382;47.578;8.086;2022-07-09T04:40:58;9.27;;;1.40;;
28068;SDS011;15382;47.578;8.086;2022-07-09T04:50:59;5.30;;;1.40;;
28068;SDS011;15382;47.578;8.086;2022-07-09T05:01:00;8.53;;;2.33;;
28068;SDS011;15382;47.578;8.086;2022-07-09T05:11:01;6.80;;;1.90;;
28068;SDS011;15382;47.578;8.086;2022-07-09T05:21:01;4.43;;;2.27;;
28068;SDS011;15382;47.578;8.086;2022-07-09T05:31:02;4.83;;;2.30;;
28068;SDS011;15382;47.578;8.086;2022-07-09T05:41:03;4.83;;;2.30;;
28068;SDS011;15382;47.578;8.086;2022-07-09T05:51:05;6.43;;;2.23;;
28068;SDS011;15382;47.578;8.086;2022-07-09T06:01:06;6.90;;;2.33;;
28068;SDS011;15382;47.578;8.086;2022-07-09T06:11:07;5.50;;;2.47;;
28068;SDS011;15382;47.578;8.086;2022-07-09T06:21:08;6.87;;;1.80;;
28068;SDS011;15382;47.578;8.086;2022-07-09T06:31:08;5.10;;;1.90;;
28068;SDS011;15382;47.578;8.086;2022-07-09T06:41:09;7.03;;;1.93;;
28068;SDS011;15382;47.578;8.086;2022-07-09T06:51:10;5.20;;;1.67;;
28068;SDS011;15382;47.578;8.086;2022-07-09T07:01:11;3.77;;;1.53;;
28068;SDS011;15382;47.578;8.086;2022-07-09T07:11:12;7.37;;;2.03;;
28068;SDS011;15382;47.578;8.086;2022-07-09T07:21:12;2.80;;;1.67;;
28068;SDS011;15382;47.578;8.086;2022-07-09T07:31:13;4.03;;;1.40;;
28068;SDS011;15382;47.578;8.086;2022-07-09T07:41:14;5.90;;;1.83;;
28068;SDS011;15382;47.578;8.086;2022-07-09T07:51:18;10.93;;;1.33;;
28068;SDS011;15382;47.578;8.086;2022-07-09T08:01:19;3.43;;;1.13;;
28068;SDS011;15382;47.578;8.086;2022-07-09T08:11:20;3.37;;;1.47;;
28068;SDS011;15382;47.578;8.086;2022-07-09T08:21:21;3.03;;;1.20;;
28068;SDS011;15382;47.578;8.086;2022-07-09T08:31:22;2.83;;;0.80;;
28068;SDS011;15382;47.578;8.086;2022-07-09T08:41:23;3.83;;;1.00;;
28068;SDS011;15382;47.578;8.086;2022-07-09T08:51:24;5.53;;;1.23;;
28068;SDS011;15382;47.578;8.086;2022-07-09T09:01:26;4.32;;;1.15;;
28068;SDS011;15382;47.578;8.086;2022-07-09T09:11:27;2.28;;;0.90;;
28068;SDS011;15382;47.578;8.086;2022-07-09T09:31:33;2.17;;;1.03;;
28068;SDS011;15382;47.578;8.086;2022-07-09T09:41:35;2.47;;;0.73;;
28068;SDS011;15382;47.578;8.086;2022-07-09T09:51:38;3.80;;;1.00;;
28068;SDS011;15382;47.578;8.086;2022-07-09T10:01:44;2.70;;;1.00;;
28068;SDS011;15382;47.578;8.086;2022-07-09T10:11:46;1.67;;;0.80;;
28068;SDS011;15382;47.578;8.086;2022-07-09T10:21:51;2.72;;;0.63;;
28068;SDS011;15382;47.578;8.086;2022-07-09T10:31:55;5.57;;;1.48;;
28068;SDS011;15382;47.578;8.086;2022-07-09T10:52:06;1.40;;;0.70;;
28068;SDS011;15382;47.578;8.086;2022-07-09T11:02:16;2.70;;;0.70;;
28068;SDS011;15382;47.578;8.086;2022-07-09T11:12:20;6.80;;;0.80;;
28068;SDS011;15382;47.578;8.086;2022-07-09T11:22:21;0.88;;;0.50;;
28068;SDS011;15382;47.578;8.086;2022-07-09T11:32:22;6.80;;;0.77;;
28068;SDS011;15382;47.578;8.086;2022-07-09T11:42:23;1.87;;;0.67;;
28068;SDS011;15382;47.578;8.086;2022-07-09T11:52:24;2.47;;;0.75;;
28068;SDS011;15382;47.578;8.086;2022-07-09T12:02:26;4.43;;;0.68;;
28068;SDS011;15382;47.578;8.086;2022-07-09T12:12:33;5.07;;;0.80;;
28068;SDS011;15382;47.578;8.086;2022-07-09T12:22:35;2.10;;;0.88;;
28068;SDS011;15382;47.578;8.086;2022-07-09T12:32:36;2.67;;;0.88;;
28068;SDS011;15382;47.578;8.086;2022-07-09T12:42:38;1.50;;;0.68;;
28068;SDS011;15382;47.578;8.086;2022-07-09T12:52:39;4.03;;;0.90;;
28068;SDS011;15382;47.578;8.086;2022-07-09T13:02:40;3.08;;;0.70;;
28068;SDS011;15382;47.578;8.086;2022-07-09T13:12:41;2.65;;;0.90;;
28068;SDS011;15382;47.578;8.086;2022-07-09T13:22:42;1.27;;;0.65;;
28068;SDS011;15382;47.578;8.086;2022-07-09T13:32:42;1.48;;;0.70;;
28068;SDS011;15382;47.578;8.086;2022-07-09T13:42:43;3.90;;;0.85;;
28068;SDS011;15382;47.578;8.086;2022-07-09T13:52:44;1.27;;;0.70;;
28068;SDS011;15382;47.578;8.086;2022-07-09T14:02:45;3.97;;;0.77;;
28068;SDS011;15382;47.578;8.086;2022-07-09T14:12:46;2.88;;;1.00;;
28068;SDS011;15382;47.578;8.086;2022-07-09T14:22:48;1.45;;;0.70;;
28068;SDS011;15382;47.578;8.086;2022-07-09T14:32:48;1.67;;;0.70;;
28068;SDS011;15382;47.578;8.086;2022-07-09T14:42:49;0.52;;;0.50;;
28068;SDS011;15382;47.578;8.086;2022-07-09T14:52:50;1.45;;;0.75;;
28068;SDS011;15382;47.578;8.086;2022-07-09T15:02:51;3.22;;;0.90;;
28068;SDS011;15382;47.578;8.086;2022-07-09T15:12:52;5.72;;;0.90;;
28068;SDS011;15382;47.578;8.086;2022-07-09T15:22:53;1.80;;;0.90;;
28068;SDS011;15382;47.578;8.086;2022-07-09T15:32:57;2.05;;;0.85;;
28068;SDS011;15382;47.578;8.086;2022-07-09T15:42:58;3.17;;;0.77;;
28068;SDS011;15382;47.578;8.086;2022-07-09T15:52:59;1.67;;;0.90;;
28068;SDS011;15382;47.578;8.086;2022-07-09T16:03:00;0.93;;;0.65;;
28068;SDS011;15382;47.578;8.086;2022-07-09T16:13:02;6.03;;;1.30;;
28068;SDS011;15382;47.578;8.086;2022-07-09T16:23:02;7.13;;;1.85;;
28068;SDS011;15382;47.578;8.086;2022-07-09T16:33:03;5.70;;;1.40;;
28068;SDS011;15382;47.578;8.086;2022-07-09T16:43:05;3.13;;;1.40;;
28068;SDS011;15382;47.578;8.086;2022-07-09T16:53:06;8.23;;;1.73;;
28068;SDS011;15382;47.578;8.086;2022-07-09T17:03:07;3.55;;;1.38;;
28068;SDS011;15382;47.578;8.086;2022-07-09T17:13:11;4.47;;;1.65;;
28068;SDS011;15382;47.578;8.086;2022-07-09T17:33:13;7.03;;;1.40;;
28068;SDS011;15382;47.578;8.086;2022-07-09T17:53:14;4.80;;;1.27;;
28068;SDS011;15382;47.578;8.086;2022-07-09T18:03:15;6.57;;;1.40;;
28068;SDS011;15382;47.578;8.086;2022-07-09T18:13:16;7.95;;;1.20;;
28068;SDS011;15382;47.578;8.086;2022-07-09T18:23:17;4.90;;;0.90;;
28068;SDS011;15382;47.578;8.086;2022-07-09T18:33:18;1.75;;;1.00;;
28068;SDS011;15382;47.578;8.086;2022-07-09T18:43:19;1.42;;;0.93;;
28068;SDS011;15382;47.578;8.086;2022-07-09T18:53:20;4.80;;;1.20;;
28068;SDS011;15382;47.578;8.086;2022-07-09T19:03:21;2.57;;;1.37;;
28068;SDS011;15382;47.578;8.086;2022-07-09T19:13:22;1.90;;;1.13;;
28068;SDS011;15382;47.578;8.086;2022-07-09T19:23:22;2.20;;;1.10;;
28068;SDS011;15382;47.578;8.086;2022-07-09T19:33:23;1.87;;;1.10;;
28068;SDS011;15382;47.578;8.086;2022-07-09T19:43:43;3.22;;;1.42;;
28068;SDS011;15382;47.578;8.086;2022-07-09T19:53:44;2.10;;;1.10;;
28068;SDS011;15382;47.578;8.086;2022-07-09T20:03:45;4.95;;;1.30;;
28068;SDS011;15382;47.578;8.086;2022-07-09T20:13:47;2.97;;;1.50;;
28068;SDS011;15382;47.578;8.086;2022-07-09T20:23:48;5.30;;;1.40;;
28068;SDS011;15382;47.578;8.086;2022-07-09T20:33:49;2.07;;;1.30;;
28068;SDS011;15382;47.578;8.086;2022-07-09T20:43:49;3.50;;;1.20;;
28068;SDS011;15382;47.578;8.086;2022-07-09T20:53:50;5.87;;;1.40;;
28068;SDS011;15382;47.578;8.086;2022-07-09T21:03:51;2.07;;;1.40;;
28068;SDS011;15382;47.578;8.086;2022-07-09T21:13:52;3.40;;;1.53;;
28068;SDS011;15382;47.578;8.086;2022-07-09T21:23:53;3.57;;;1.87;;
28068;SDS011;15382;47.578;8.086;2022-07-09T21:33:54;4.10;;;1.73;;
28068;SDS011;15382;47.578;8.086;2022-07-09T21:43:54;2.90;;;1.60;;
28068;SDS011;15382;47.578;8.086;2022-07-09T21:53:57;4.18;;;2.05;;
28068;SDS011;15382;47.578;8.086;2022-07-09T22:03:57;4.43;;;2.23;;
28068;SDS011;15382;47.578;8.086;2022-07-09T22:13:58;3.43;;;1.60;;
28068;SDS011;15382;47.578;8.086;2022-07-09T22:24:01;2.90;;;1.90;;
28068;SDS011;15382;47.578;8.086;2022-07-09T22:34:01;3.40;;;1.77;;
28068;SDS011;15382;47.578;8.086;2022-07-09T22:44:06;3.75;;;1.95;;
28068;SDS011;15382;47.578;8.086;2022-07-09T22:54:07;3.37;;;2.20;;
28068;SDS011;15382;47.578;8.086;2022-07-09T23:04:08;3.87;;;2.30;;
28068;SDS011;15382;47.578;8.086;2022-07-09T23:14:09;3.73;;;2.13;;
28068;SDS011;15382;47.578;8.086;2022-07-09T23:24:10;6.10;;;2.17;;
28068;SDS011;15382;47.578;8.086;2022-07-09T23:34:11;10.03;;;3.50;;
28068;SDS011;15382;47.578;8.086;2022-07-09T23:44:12;3.30;;;2.00;;
28068;SDS011;15382;47.578;8.086;2022-07-09T23:54:13;5.20;;;2.50;;
